Time;durP1;ratioP1;P1;durP2;ratioP2;P2;SDS_P1;SDS_P2;PMS_P1;PMS_P2;Temp;Humidity;BMP_temperature;BMP_pressure;BME280_temperature;BME280_humidity;BME280_pressure;Samples;Min_cycle;Max_cycle;Signal;HPM_P1;HPM_P2
2023/12/13 00:01:02;;;;;;;143.23;81.70;;;4.70;99.90;;;;;;5128795;28;20199;-61
2023/12/13 00:03:31;;;;;;;185.60;99.77;;;4.70;99.90;;;;;;5129413;28;20191;-60
2023/12/13 00:05:59;;;;;;;167.00;94.03;;;4.80;99.90;;;;;;5123867;27;20202;-61
2023/12/13 00:08:27;;;;;;;200.10;107.63;;;4.90;99.90;;;;;;5123072;28;20623;-61
2023/12/13 00:10:58;;;;;;;183.93;105.00;;;4.90;99.90;;;;;;5129111;28;20210;-60
2023/12/13 00:13:27;;;;;;;194.87;102.50;;;4.90;99.90;;;;;;5128546;28;20264;-60
2023/12/13 00:15:55;;;;;;;189.40;101.10;;;4.80;99.90;;;;;;5128181;28;20222;-60
2023/12/13 00:18:25;;;;;;;207.80;109.23;;;4.60;99.90;;;;;;5129504;27;20687;-60
2023/12/13 00:20:53;;;;;;;178.33;92.80;;;4.50;99.90;;;;;;5132725;27;20961;-63
2023/12/13 00:23:22;;;;;;;179.23;95.07;;;4.50;99.90;;;;;;5133104;27;20199;-63
2023/12/13 00:25:51;;;;;;;191.80;97.07;;;4.60;99.90;;;;;;5114517;27;20295;-64
2023/12/13 00:28:19;;;;;;;192.63;95.63;;;4.50;99.90;;;;;;5133199;27;20698;-63
2023/12/13 00:30:47;;;;;;;215.40;100.80;;;4.60;99.90;;;;;;5132515;27;20702;-63
2023/12/13 00:33:16;;;;;;;233.13;109.47;;;4.60;99.90;;;;;;5132606;27;20218;-63
2023/12/13 00:35:46;;;;;;;188.80;98.30;;;4.60;99.90;;;;;;5132119;27;20298;-61
2023/12/13 00:38:14;;;;;;;218.63;106.27;;;4.70;99.90;;;;;;5114135;27;20206;-61
2023/12/13 00:40:43;;;;;;;247.80;114.57;;;4.80;99.90;;;;;;5132704;27;20231;-62
2023/12/13 00:43:11;;;;;;;257.13;117.60;;;4.80;99.90;;;;;;5132052;27;20656;-61
2023/12/13 00:45:39;;;;;;;224.77;109.30;;;4.80;99.90;;;;;;5132201;27;20202;-61
2023/12/13 00:48:08;;;;;;;232.00;116.33;;;4.60;99.90;;;;;;5131637;27;20858;-61
2023/12/13 00:50:36;;;;;;;253.73;114.23;;;4.40;99.90;;;;;;5131957;27;20260;-66
2023/12/13 00:53:06;;;;;;;228.53;113.47;;;4.40;99.90;;;;;;5131821;27;20202;-60
2023/12/13 00:55:34;;;;;;;233.87;112.47;;;4.50;99.90;;;;;;5131720;27;20293;-61
2023/12/13 00:58:03;;;;;;;207.13;104.30;;;4.60;99.90;;;;;;5131571;27;20222;-63
2023/12/13 01:00:31;;;;;;;211.87;106.00;;;4.70;99.90;;;;;;5131984;27;20190;-62
2023/12/13 01:03:00;;;;;;;228.17;109.17;;;4.60;99.90;;;;;;5131473;27;20223;-61
2023/12/13 01:05:28;;;;;;;206.73;102.43;;;4.60;99.90;;;;;;5131653;27;20195;-62
2023/12/13 01:07:56;;;;;;;204.57;103.80;;;4.60;99.90;;;;;;5131196;27;20199;-61
2023/12/13 01:10:26;;;;;;;170.27;85.13;;;4.70;99.90;;;;;;5131281;27;20714;-64
2023/12/13 01:12:54;;;;;;;183.37;91.20;;;4.70;99.90;;;;;;5131530;27;20194;-63
2023/12/13 01:15:23;;;;;;;169.50;86.57;;;4.60;99.90;;;;;;5131527;27;20199;-62
2023/12/13 01:17:51;;;;;;;152.17;84.37;;;4.70;99.90;;;;;;5130978;27;20229;-61
2023/12/13 01:20:19;;;;;;;165.87;83.27;;;4.80;99.90;;;;;;5131499;27;20183;-59
2023/12/13 01:22:48;;;;;;;138.57;70.17;;;4.80;99.90;;;;;;5112833;27;20211;-59
2023/12/13 01:25:16;;;;;;;126.27;63.20;;;4.80;99.90;;;;;;5131275;27;20251;-61
2023/12/13 01:27:46;;;;;;;122.80;63.63;;;4.70;99.90;;;;;;5131181;27;20557;-61
2023/12/13 01:30:14;;;;;;;112.57;60.00;;;4.70;99.90;;;;;;5111894;27;20206;-61
2023/12/13 01:32:43;;;;;;;101.73;53.60;;;4.70;99.90;;;;;;5124359;27;20271;-65
2023/12/13 01:35:11;;;;;;;91.53;49.67;;;4.50;99.90;;;;;;5115468;27;20299;-63
2023/12/13 01:37:39;;;;;;;72.10;43.77;;;4.40;99.90;;;;;;5130930;27;20230;-62
2023/12/13 01:40:08;;;;;;;69.10;41.20;;;4.30;99.90;;;;;;5130467;27;20271;-64
2023/12/13 01:42:39;;;;;;;69.43;39.33;;;4.30;99.90;;;;;;5130875;27;20195;-62
2023/12/13 01:45:09;;;;;;;63.63;37.50;;;4.20;99.90;;;;;;5130884;27;20676;-63
2023/12/13 01:47:39;;;;;;;66.63;39.90;;;4.30;99.90;;;;;;5130631;27;20202;-60
2023/12/13 01:50:08;;;;;;;66.70;38.67;;;4.50;99.90;;;;;;5130852;27;20944;-63
2023/12/13 01:52:37;;;;;;;80.10;46.00;;;4.50;99.90;;;;;;5130718;27;20309;-63
2023/12/13 01:55:08;;;;;;;93.57;53.50;;;4.70;99.90;;;;;;5130455;27;20199;-61
2023/12/13 01:57:38;;;;;;;113.13;62.37;;;4.80;99.90;;;;;;5130469;27;20214;-62
2023/12/13 02:00:09;;;;;;;105.50;58.23;;;4.80;99.90;;;;;;5130615;27;20205;-64
2023/12/13 02:02:41;;;;;;;106.03;61.83;;;4.80;99.90;;;;;;5130499;27;20647;-64
2023/12/13 02:05:11;;;;;;;121.10;65.67;;;4.70;99.90;;;;;;5131330;27;20187;-61
2023/12/13 02:07:40;;;;;;;131.07;69.40;;;4.80;99.90;;;;;;5131059;27;20202;-62
2023/12/13 02:10:09;;;;;;;132.47;72.70;;;4.70;99.90;;;;;;5130875;27;20566;-61
2023/12/13 02:12:38;;;;;;;159.10;87.17;;;4.80;99.90;;;;;;5130923;27;20221;-62
2023/12/13 02:15:09;;;;;;;167.13;85.93;;;4.80;99.90;;;;;;5130916;27;20207;-61
2023/12/13 02:17:48;;;;;;;161.27;79.13;;;4.70;99.90;;;;;;5130722;27;20689;-61
2023/12/13 02:20:16;;;;;;;147.50;80.83;;;4.70;99.90;;;;;;5130852;27;20914;-62
2023/12/13 02:22:46;;;;;;;134.00;73.10;;;4.60;99.90;;;;;;5130731;27;20203;-63
2023/12/13 02:25:17;;;;;;;141.57;77.33;;;4.70;99.90;;;;;;5130833;27;20199;-62
2023/12/13 02:27:46;;;;;;;143.40;77.83;;;4.80;99.90;;;;;;5130866;27;20203;-60
2023/12/13 02:30:15;;;;;;;154.27;80.07;;;4.90;99.90;;;;;;5130757;27;20267;-63
2023/12/13 02:32:43;;;;;;;172.87;90.23;;;4.90;99.90;;;;;;5123331;27;20915;-62
2023/12/13 02:35:11;;;;;;;161.07;85.53;;;4.80;99.90;;;;;;5118577;27;20211;-63
2023/12/13 02:37:40;;;;;;;159.57;87.00;;;4.60;99.90;;;;;;5109816;28;20281;-62
2023/12/13 02:40:13;;;;;;;161.07;86.87;;;4.60;99.90;;;;;;5109635;28;20206;-62
2023/12/13 02:42:41;;;;;;;164.73;83.17;;;4.50;99.90;;;;;;5109145;28;20245;-62
2023/12/13 02:45:12;;;;;;;142.03;80.57;;;4.40;99.90;;;;;;5109829;28;20260;-61
2023/12/13 02:47:42;;;;;;;130.90;66.20;;;4.20;99.90;;;;;;5109569;28;20203;-63
2023/12/13 02:50:11;;;;;;;106.30;57.90;;;3.90;99.90;;;;;;5109582;28;20264;-62
2023/12/13 02:52:41;;;;;;;104.43;55.27;;;3.70;99.90;;;;;;5109832;28;20284;-61
2023/12/13 02:55:10;;;;;;;91.50;50.17;;;3.40;99.90;;;;;;5109486;28;20204;-61
2023/12/13 02:57:39;;;;;;;84.87;45.80;;;3.30;99.90;;;;;;5091420;28;20597;-61
2023/12/13 03:00:08;;;;;;;89.30;46.57;;;3.20;99.90;;;;;;5109669;28;20194;-62
2023/12/13 03:02:39;;;;;;;82.77;43.30;;;3.40;99.90;;;;;;5109488;28;20550;-63
2023/12/13 03:05:08;;;;;;;66.40;36.63;;;3.50;99.90;;;;;;5109520;28;20940;-62
2023/12/13 03:07:40;;;;;;;49.07;30.50;;;3.60;99.90;;;;;;5109523;28;20243;-63
2023/12/13 03:10:10;;;;;;;52.60;32.23;;;3.80;99.90;;;;;;5109350;28;20898;-62
2023/12/13 03:12:40;;;;;;;60.40;34.90;;;4.00;99.90;;;;;;5109506;28;20296;-62
2023/12/13 03:15:09;;;;;;;63.27;35.50;;;4.10;99.90;;;;;;5109313;28;20201;-62
2023/12/13 03:17:37;;;;;;;54.17;31.77;;;4.40;99.90;;;;;;5109046;28;20220;-61
2023/12/13 03:20:08;;;;;;;56.20;31.77;;;4.40;99.90;;;;;;5109643;28;20203;-62
2023/12/13 03:22:36;;;;;;;49.93;29.60;;;4.40;99.90;;;;;;5109490;28;20187;-62
2023/12/13 03:25:05;;;;;;;46.70;29.17;;;4.40;99.90;;;;;;5109205;28;20253;-61
2023/12/13 03:27:35;;;;;;;58.07;35.27;;;4.40;99.90;;;;;;5109497;28;20196;-61
2023/12/13 03:30:05;;;;;;;75.50;40.60;;;4.40;99.90;;;;;;5109219;28;20268;-61
2023/12/13 03:32:33;;;;;;;69.27;39.90;;;4.40;99.90;;;;;;5108983;28;20196;-62
2023/12/13 03:35:01;;;;;;;72.13;41.87;;;4.40;99.90;;;;;;5109277;28;20200;-60
2023/12/13 03:37:31;;;;;;;83.63;46.60;;;4.40;99.90;;;;;;5109331;28;20199;-61
2023/12/13 03:40:00;;;;;;;78.20;46.13;;;4.40;99.90;;;;;;5109163;28;20285;-60
2023/12/13 03:42:28;;;;;;;93.23;50.73;;;4.30;99.90;;;;;;5109047;28;20638;-59
2023/12/13 03:44:58;;;;;;;90.23;51.30;;;4.30;99.90;;;;;;5109279;28;20252;-62
2023/12/13 03:47:26;;;;;;;86.00;48.80;;;4.40;99.90;;;;;;5109002;28;21026;-60
2023/12/13 03:49:55;;;;;;;83.27;47.30;;;4.40;99.90;;;;;;5114383;27;20196;-59
2023/12/13 03:52:23;;;;;;;85.03;48.83;;;4.40;99.90;;;;;;5114826;28;20618;-62
2023/12/13 03:54:51;;;;;;;88.67;47.83;;;4.40;99.90;;;;;;5109000;28;20212;-62
2023/12/13 03:57:20;;;;;;;100.37;54.57;;;4.40;99.90;;;;;;5108815;28;20210;-59
2023/12/13 03:59:48;;;;;;;72.97;44.77;;;4.40;99.90;;;;;;5109029;28;20230;-60
2023/12/13 04:02:18;;;;;;;93.33;52.20;;;4.40;99.90;;;;;;5108702;28;20688;-61
2023/12/13 04:04:46;;;;;;;83.57;49.03;;;4.30;99.90;;;;;;5108999;28;20207;-59
2023/12/13 04:07:14;;;;;;;82.00;46.13;;;4.40;99.90;;;;;;5108830;28;20226;-59
2023/12/13 04:09:43;;;;;;;72.53;41.00;;;4.50;99.90;;;;;;5109134;28;20248;-60
2023/12/13 04:12:11;;;;;;;66.13;38.80;;;4.60;99.90;;;;;;5108955;28;20199;-62
2023/12/13 04:14:39;;;;;;;64.43;38.90;;;4.50;99.90;;;;;;5109025;28;20215;-60
2023/12/13 04:17:07;;;;;;;71.80;43.80;;;4.50;99.90;;;;;;5109187;28;20970;-62
2023/12/13 04:19:37;;;;;;;62.80;39.40;;;4.60;99.90;;;;;;5108803;28;20227;-59
2023/12/13 04:22:05;;;;;;;57.03;33.90;;;4.60;99.90;;;;;;5109105;28;20192;-62
2023/12/13 04:24:34;;;;;;;52.07;31.63;;;4.60;99.90;;;;;;5108738;28;20196;-61
2023/12/13 04:27:02;;;;;;;37.20;24.33;;;4.50;99.90;;;;;;5109065;28;20196;-62
2023/12/13 04:29:31;;;;;;;23.87;16.80;;;4.40;99.90;;;;;;5108934;28;20188;-61
2023/12/13 04:31:59;;;;;;;23.20;17.03;;;4.30;99.90;;;;;;5108791;28;20214;-60
2023/12/13 04:34:27;;;;;;;28.27;18.00;;;4.20;99.90;;;;;;5108642;28;20200;-62
2023/12/13 04:36:57;;;;;;;31.90;21.40;;;4.20;99.90;;;;;;5108859;28;20184;-60
2023/12/13 04:39:26;;;;;;;29.50;18.93;;;4.30;99.90;;;;;;5108827;28;20689;-60
2023/12/13 04:41:54;;;;;;;24.53;17.07;;;4.30;99.90;;;;;;5108656;28;20254;-61
2023/12/13 04:44:27;;;;;;;23.77;16.37;;;4.40;99.90;;;;;;5108870;28;20207;-62
2023/12/13 04:46:56;;;;;;;25.07;16.53;;;4.40;99.90;;;;;;5109007;28;20586;-60
2023/12/13 04:49:25;;;;;;;24.23;15.53;;;4.20;99.90;;;;;;5108751;28;20187;-62
2023/12/13 04:51:53;;;;;;;23.07;16.50;;;4.10;99.90;;;;;;5108886;28;20234;-64
2023/12/13 04:54:23;;;;;;;25.30;16.40;;;4.10;99.90;;;;;;5109158;28;20192;-63
2023/12/13 04:56:51;;;;;;;29.67;16.70;;;4.00;99.90;;;;;;5109270;28;20237;-60
2023/12/13 04:59:19;;;;;;;26.80;15.80;;;3.90;99.90;;;;;;5108837;28;20235;-62
2023/12/13 05:01:48;;;;;;;29.47;16.80;;;4.00;99.90;;;;;;5112304;27;20196;-61
2023/12/13 05:04:16;;;;;;;25.10;15.83;;;4.20;99.90;;;;;;5127028;27;20198;-60
2023/12/13 05:06:44;;;;;;;22.50;15.50;;;4.30;99.90;;;;;;5131896;27;20272;-60
2023/12/13 05:09:13;;;;;;;22.77;16.57;;;4.40;99.90;;;;;;5132517;27;20307;-61
2023/12/13 05:11:43;;;;;;;22.43;16.43;;;4.30;99.90;;;;;;5132546;27;20721;-60
2023/12/13 05:14:11;;;;;;;24.10;16.80;;;4.20;99.90;;;;;;5132663;27;20260;-61
2023/12/13 05:16:39;;;;;;;25.30;16.53;;;4.20;99.90;;;;;;5132589;27;20218;-59
2023/12/13 05:19:07;;;;;;;24.43;15.10;;;4.40;99.90;;;;;;5132122;27;20218;-60
2023/12/13 05:21:36;;;;;;;29.97;18.47;;;4.40;99.90;;;;;;5132324;27;20295;-60
2023/12/13 05:24:04;;;;;;;34.00;19.67;;;4.30;99.90;;;;;;5132289;27;20195;-59
2023/12/13 05:26:33;;;;;;;30.13;18.47;;;4.20;99.90;;;;;;5131411;27;20199;-63
2023/12/13 05:29:03;;;;;;;26.90;19.03;;;4.20;99.90;;;;;;5132159;27;20184;-61
2023/12/13 05:31:31;;;;;;;25.77;16.60;;;4.30;99.90;;;;;;5132131;27;21097;-60
2023/12/13 05:34:00;;;;;;;29.33;16.97;;;4.20;99.90;;;;;;5131933;27;20194;-60
2023/12/13 05:36:30;;;;;;;30.40;20.23;;;4.30;99.90;;;;;;5132352;27;20248;-61
2023/12/13 05:38:58;;;;;;;31.90;20.30;;;4.30;99.90;;;;;;5131203;27;20272;-61
2023/12/13 05:41:27;;;;;;;35.77;21.97;;;4.30;99.90;;;;;;5129998;27;20604;-59
2023/12/13 05:43:55;;;;;;;31.83;20.70;;;4.40;99.90;;;;;;5124707;27;20655;-59
2023/12/13 05:46:25;;;;;;;35.27;22.17;;;4.30;99.90;;;;;;5118032;27;20200;-60
2023/12/13 05:48:53;;;;;;;33.70;23.70;;;4.40;99.90;;;;;;5111746;28;20226;-61
2023/12/13 05:51:21;;;;;;;37.13;23.10;;;4.50;99.90;;;;;;5117097;27;20196;-60
2023/12/13 05:53:50;;;;;;;34.07;21.50;;;4.40;99.90;;;;;;5127094;27;20196;-60
2023/12/13 05:56:18;;;;;;;35.03;22.93;;;4.40;99.90;;;;;;5111130;28;20203;-63
2023/12/13 05:58:46;;;;;;;37.47;23.33;;;4.50;99.90;;;;;;5111445;28;20203;-60
2023/12/13 06:01:15;;;;;;;36.40;24.23;;;4.50;99.90;;;;;;5118010;27;20186;-60
2023/12/13 06:03:45;;;;;;;41.93;25.90;;;4.50;99.90;;;;;;5130766;27;20202;-61
2023/12/13 06:06:13;;;;;;;34.73;23.87;;;4.40;99.90;;;;;;5131721;27;20198;-62
2023/12/13 06:08:41;;;;;;;43.93;26.37;;;4.30;99.90;;;;;;5131686;27;20199;-62
2023/12/13 06:11:11;;;;;;;52.23;30.87;;;4.30;99.90;;;;;;5130853;27;20199;-63
2023/12/13 06:13:41;;;;;;;106.53;54.07;;;4.30;99.90;;;;;;5130049;27;20210;-63
2023/12/13 06:16:12;;;;;;;86.60;47.03;;;4.40;99.90;;;;;;5127497;27;20210;-63
2023/12/13 06:18:41;;;;;;;136.77;75.37;;;4.30;99.90;;;;;;5130646;27;20561;-63
2023/12/13 06:21:10;;;;;;;162.50;94.83;;;4.10;99.90;;;;;;5130669;27;20229;-62
2023/12/13 06:23:39;;;;;;;157.23;91.73;;;4.20;99.90;;;;;;5127561;27;20937;-62
2023/12/13 06:26:07;;;;;;;165.80;92.93;;;4.20;99.90;;;;;;5110670;28;20691;-60
2023/12/13 06:28:35;;;;;;;157.27;91.77;;;4.30;99.90;;;;;;5110182;28;20200;-63
2023/12/13 06:31:04;;;;;;;160.33;90.53;;;4.30;99.90;;;;;;5110206;28;20699;-60
2023/12/13 06:33:32;;;;;;;150.53;85.77;;;4.10;99.90;;;;;;5121813;27;20219;-64
2023/12/13 06:36:01;;;;;;;160.33;88.37;;;4.10;99.90;;;;;;5110209;28;20218;-59
2023/12/13 06:38:30;;;;;;;163.57;90.60;;;4.20;99.90;;;;;;5109960;28;20244;-61
2023/12/13 06:40:59;;;;;;;171.93;90.10;;;4.30;99.90;;;;;;5110045;27;20296;-62
2023/12/13 06:43:27;;;;;;;151.67;81.70;;;4.30;99.90;;;;;;5121649;27;20246;-58
2023/12/13 06:45:56;;;;;;;158.07;83.50;;;4.20;99.90;;;;;;5130675;27;20221;-61
2023/12/13 06:48:24;;;;;;;166.93;88.23;;;4.00;99.90;;;;;;5130317;27;20211;-61
2023/12/13 06:50:53;;;;;;;163.37;88.90;;;4.10;99.90;;;;;;5128072;27;20197;-63
2023/12/13 06:53:21;;;;;;;164.83;88.07;;;4.10;99.90;;;;;;5129688;27;20199;-62
2023/12/13 06:55:51;;;;;;;151.30;83.50;;;4.20;99.90;;;;;;5130087;27;20219;-64
2023/12/13 06:58:19;;;;;;;129.60;68.83;;;4.10;99.90;;;;;;5129914;27;20680;-62
2023/12/13 07:00:47;;;;;;;116.40;63.10;;;4.10;99.90;;;;;;5130147;27;20237;-62
2023/12/13 07:03:16;;;;;;;130.47;75.07;;;4.20;99.90;;;;;;5130016;27;20187;-59
2023/12/13 07:05:45;;;;;;;137.90;74.10;;;4.30;99.90;;;;;;5128314;27;20222;-64
2023/12/13 07:08:14;;;;;;;121.67;67.93;;;4.40;99.90;;;;;;5129358;27;20286;-59
2023/12/13 07:10:43;;;;;;;105.93;61.43;;;4.20;99.90;;;;;;5129864;27;20564;-62
2023/12/13 07:13:13;;;;;;;114.53;66.10;;;4.20;99.90;;;;;;5129921;27;20203;-63
2023/12/13 07:15:42;;;;;;;102.63;63.53;;;4.30;99.90;;;;;;5128710;27;20207;-65
2023/12/13 07:18:10;;;;;;;107.03;64.87;;;4.40;99.90;;;;;;5129773;27;20194;-63
2023/12/13 07:20:39;;;;;;;93.47;59.93;;;4.50;99.90;;;;;;5128797;27;20207;-64
2023/12/13 07:23:10;;;;;;;85.47;56.37;;;4.50;99.90;;;;;;5129752;27;20290;-61
2023/12/13 07:25:39;;;;;;;66.27;46.17;;;4.50;99.90;;;;;;5130050;27;20187;-63
2023/12/13 07:28:08;;;;;;;67.37;42.27;;;4.50;99.90;;;;;;5129203;27;20297;-62
2023/12/13 07:30:37;;;;;;;67.70;47.37;;;4.50;99.90;;;;;;5129797;27;20187;-61
2023/12/13 07:33:12;;;;;;;72.53;46.33;;;4.50;99.90;;;;;;5130117;27;20190;-60
2023/12/13 07:35:45;;;;;;;94.87;59.20;;;4.70;99.90;;;;;;5129774;27;20203;-62
2023/12/13 07:38:14;;;;;;;47.97;31.03;;;4.80;99.90;;;;;;5129763;27;20191;-64
2023/12/13 07:40:44;;;;;;;47.80;28.83;;;4.70;99.90;;;;;;5129553;27;20249;-61
2023/12/13 07:43:12;;;;;;;52.80;29.73;;;4.40;99.90;;;;;;5129785;27;20191;-60
2023/12/13 07:45:43;;;;;;;52.70;30.27;;;4.50;99.90;;;;;;5129787;27;20207;-64
2023/12/13 07:48:11;;;;;;;55.57;31.77;;;4.40;99.90;;;;;;5129680;27;20286;-64
2023/12/13 07:50:45;;;;;;;55.63;33.23;;;4.40;99.90;;;;;;5129783;27;20183;-64
2023/12/13 07:53:13;;;;;;;63.13;37.97;;;4.50;99.90;;;;;;5129760;28;20191;-64
2023/12/13 07:55:42;;;;;;;70.03;41.80;;;4.50;99.90;;;;;;5129730;28;20224;-64
2023/12/13 07:58:10;;;;;;;88.73;53.23;;;4.60;99.90;;;;;;5129529;27;20657;-62
2023/12/13 08:00:38;;;;;;;87.10;51.33;;;4.60;99.90;;;;;;5129720;27;20219;-64
2023/12/13 08:03:08;;;;;;;88.77;49.57;;;4.60;99.90;;;;;;5129460;28;20194;-63
2023/12/13 08:05:36;;;;;;;97.50;53.37;;;4.60;99.90;;;;;;5129387;28;20279;-63
2023/12/13 08:08:05;;;;;;;77.37;45.07;;;4.40;99.90;;;;;;5129548;27;20195;-62
2023/12/13 08:10:34;;;;;;;79.57;44.77;;;4.50;99.90;;;;;;5129572;27;20205;-63
2023/12/13 08:13:03;;;;;;;71.70;41.13;;;4.40;99.90;;;;;;5129668;27;20195;-62
2023/12/13 08:15:31;;;;;;;81.17;43.93;;;4.50;99.90;;;;;;5129600;27;20281;-61
2023/12/13 08:17:59;;;;;;;69.73;41.57;;;4.50;99.90;;;;;;5129437;28;20191;-65
2023/12/13 08:20:29;;;;;;;69.03;41.00;;;4.60;99.90;;;;;;5129238;28;20215;-61
2023/12/13 08:22:58;;;;;;;72.60;43.73;;;4.60;99.90;;;;;;5129613;27;20668;-62
2023/12/13 08:25:26;;;;;;;77.70;44.93;;;4.80;99.90;;;;;;5129669;28;20195;-60
2023/12/13 08:27:55;;;;;;;65.83;42.13;;;4.90;99.90;;;;;;5129589;27;20290;-64
2023/12/13 08:30:23;;;;;;;84.13;54.00;;;4.90;99.90;;;;;;5129839;27;20693;-62
2023/12/13 08:32:51;;;;;;;94.47;56.93;;;5.00;99.90;;;;;;5129447;27;20683;-60
2023/12/13 08:35:20;;;;;;;93.37;60.57;;;5.20;99.90;;;;;;5129387;27;20282;-64
2023/12/13 08:37:49;;;;;;;103.27;66.20;;;5.20;99.90;;;;;;5129521;27;20199;-63
2023/12/13 08:40:18;;;;;;;105.63;64.80;;;5.20;99.90;;;;;;5129729;27;20203;-62
2023/12/13 08:42:47;;;;;;;118.63;68.70;;;5.30;99.90;;;;;;5133399;27;20195;-63
2023/12/13 08:45:15;;;;;;;112.13;68.03;;;5.40;99.90;;;;;;5133229;27;20656;-62
2023/12/13 08:47:43;;;;;;;118.60;67.10;;;5.50;99.90;;;;;;5133299;27;20190;-61
2023/12/13 08:50:12;;;;;;;122.60;71.23;;;5.50;99.90;;;;;;5132943;27;20195;-60
2023/12/13 08:52:40;;;;;;;123.63;71.20;;;5.50;99.90;;;;;;5133128;27;20207;-63
2023/12/13 08:55:10;;;;;;;145.00;87.60;;;5.50;99.90;;;;;;5133037;27;20240;-64
2023/12/13 08:57:38;;;;;;;158.13;92.40;;;5.50;99.90;;;;;;5132828;27;20296;-60
2023/12/13 09:00:08;;;;;;;160.50;93.27;;;5.80;99.90;;;;;;5132997;27;20734;-60
2023/12/13 09:02:38;;;;;;;140.90;83.03;;;5.90;99.90;;;;;;5132929;27;20218;-63
2023/12/13 09:05:07;;;;;;;115.27;68.20;;;6.10;99.90;;;;;;5132755;27;20199;-64
2023/12/13 09:07:35;;;;;;;100.63;61.80;;;6.00;99.90;;;;;;5132671;27;20203;-64
2023/12/13 09:10:08;;;;;;;87.30;54.10;;;5.80;99.90;;;;;;5132646;27;20216;-61
2023/12/13 09:12:38;;;;;;;84.27;54.77;;;5.80;99.90;;;;;;5132670;27;20248;-60
2023/12/13 09:15:07;;;;;;;90.93;56.83;;;5.80;99.90;;;;;;5132585;27;20669;-64
2023/12/13 09:17:36;;;;;;;82.23;52.43;;;5.70;99.90;;;;;;5132653;27;20203;-62
2023/12/13 09:20:09;;;;;;;87.70;54.33;;;5.50;99.90;;;;;;5132530;27;20215;-63
2023/12/13 09:22:37;;;;;;;81.60;53.30;;;5.40;99.90;;;;;;5132412;27;20323;-64
2023/12/13 09:25:07;;;;;;;86.50;52.03;;;5.60;99.90;;;;;;5132229;27;20214;-63
2023/12/13 09:27:35;;;;;;;77.17;49.00;;;5.60;99.90;;;;;;5132380;27;20695;-61
2023/12/13 09:30:09;;;;;;;80.87;51.20;;;5.70;99.90;;;;;;5132445;27;20198;-61
2023/12/13 09:32:37;;;;;;;81.13;50.70;;;5.60;99.90;;;;;;5132156;27;20194;-60
2023/12/13 09:35:06;;;;;;;82.37;50.80;;;5.70;99.90;;;;;;5131922;27;20244;-62
2023/12/13 09:37:34;;;;;;;99.17;56.40;;;5.70;99.90;;;;;;5131928;27;20199;-63
2023/12/13 09:40:03;;;;;;;85.50;55.03;;;5.70;99.90;;;;;;5131700;27;20199;-64
2023/12/13 09:42:31;;;;;;;77.43;48.07;;;5.70;99.90;;;;;;5131904;27;20219;-62
2023/12/13 09:45:03;;;;;;;66.00;41.87;;;5.80;99.90;;;;;;5131693;27;20230;-65
2023/12/13 09:47:34;;;;;;;58.97;36.73;;;5.80;99.90;;;;;;5131828;27;20199;-64
2023/12/13 09:50:03;;;;;;;51.47;35.63;;;5.80;99.90;;;;;;5131411;27;20187;-64
2023/12/13 09:52:34;;;;;;;72.77;43.00;;;5.70;99.90;;;;;;5131445;27;20202;-65
2023/12/13 09:55:06;;;;;;;70.97;40.83;;;5.70;99.90;;;;;;5131599;27;20244;-64
2023/12/13 09:57:35;;;;;;;70.87;42.03;;;5.70;99.90;;;;;;5131618;27;20544;-62
2023/12/13 10:00:04;;;;;;;63.87;39.03;;;5.70;99.90;;;;;;5131666;27;20665;-62
2023/12/13 10:02:36;;;;;;;69.47;39.20;;;5.80;99.90;;;;;;5131398;27;20231;-62
2023/12/13 10:05:09;;;;;;;52.00;31.77;;;5.80;99.90;;;;;;5131211;27;20233;-62
2023/12/13 10:07:39;;;;;;;59.10;33.07;;;5.80;99.90;;;;;;5131330;27;20196;-64
2023/12/13 10:10:08;;;;;;;55.47;32.93;;;5.80;99.90;;;;;;5131355;27;20248;-60
2023/12/13 10:12:38;;;;;;;67.30;34.37;;;5.90;99.90;;;;;;5131378;27;20195;-63
2023/12/13 10:15:11;;;;;;;66.67;39.03;;;5.90;99.90;;;;;;5131178;27;20199;-64
2023/12/13 10:17:41;;;;;;;85.93;45.87;;;6.00;99.90;;;;;;5131195;27;20218;-63
2023/12/13 10:20:11;;;;;;;63.77;37.10;;;6.00;99.90;;;;;;5131176;27;20235;-63
2023/12/13 10:22:40;;;;;;;71.50;38.97;;;5.80;99.90;;;;;;5130854;27;20241;-59
2023/12/13 10:25:10;;;;;;;70.87;40.43;;;5.90;99.90;;;;;;5131071;27;20209;-64
2023/12/13 10:27:41;;;;;;;97.93;54.23;;;6.00;99.90;;;;;;5130846;27;20191;-64
2023/12/13 10:30:12;;;;;;;83.30;46.87;;;6.10;99.90;;;;;;5130882;27;20266;-64
2023/12/13 10:32:42;;;;;;;77.27;45.57;;;6.40;99.90;;;;;;5130855;27;20198;-63
2023/12/13 10:35:10;;;;;;;76.67;44.30;;;6.50;99.90;;;;;;5130624;27;20199;-61
2023/12/13 10:37:42;;;;;;;68.93;42.23;;;6.50;99.90;;;;;;5130880;27;20274;-65
2023/12/13 10:40:13;;;;;;;77.00;44.83;;;6.60;99.90;;;;;;5130469;27;20206;-63
2023/12/13 10:42:45;;;;;;;81.30;44.33;;;6.50;99.90;;;;;;5130544;27;20226;-63
2023/12/13 10:45:15;;;;;;;78.40;51.00;;;6.40;99.90;;;;;;5130608;27;20183;-63
2023/12/13 10:47:50;;;;;;;98.13;60.80;;;6.30;99.90;;;;;;5130629;27;20279;-63
2023/12/13 10:50:22;;;;;;;95.67;59.23;;;6.30;99.90;;;;;;5130402;27;20191;-62
2023/12/13 10:52:51;;;;;;;95.47;59.53;;;6.30;99.90;;;;;;5130724;27;20218;-63
2023/12/13 10:55:20;;;;;;;91.10;57.77;;;6.10;99.90;;;;;;5130294;27;20191;-64
2023/12/13 10:57:48;;;;;;;78.30;48.33;;;6.10;99.90;;;;;;5130582;27;20770;-63
2023/12/13 11:00:19;;;;;;;75.60;47.73;;;6.20;99.90;;;;;;5130410;27;20551;-66
2023/12/13 11:02:53;;;;;;;79.30;45.93;;;6.20;99.90;;;;;;5129636;27;20218;-64
2023/12/13 11:05:21;;;;;;;73.37;47.27;;;6.20;99.90;;;;;;5128681;27;20687;-64
2023/12/13 11:07:51;;;;;;;76.97;48.03;;;6.10;99.90;;;;;;5128503;27;20199;-66
2023/12/13 11:10:22;;;;;;;76.73;48.93;;;6.10;99.90;;;;;;5130218;27;20198;-63
2023/12/13 11:12:52;;;;;;;73.10;42.57;;;6.20;99.90;;;;;;5130137;27;20195;-65
2023/12/13 11:15:20;;;;;;;80.17;47.03;;;6.10;99.90;;;;;;5130167;27;20196;-64
2023/12/13 11:17:55;;;;;;;82.57;47.37;;;6.10;99.90;;;;;;5130080;27;20199;-64
2023/12/13 11:20:24;;;;;;;74.90;44.83;;;6.20;99.90;;;;;;5129904;27;20609;-62
2023/12/13 11:22:57;;;;;;;62.83;39.10;;;6.30;99.90;;;;;;5129999;27;20215;-64
2023/12/13 11:25:35;;;;;;;61.87;36.07;;;6.40;99.90;;;;;;5129869;27;20617;-64
2023/12/13 11:28:04;;;;;;;46.57;29.00;;;6.40;99.90;;;;;;5129990;27;20194;-65
2023/12/13 11:30:33;;;;;;;47.13;29.40;;;6.40;99.90;;;;;;5130039;27;20202;-64
2023/12/13 11:33:11;;;;;;;49.60;31.50;;;6.40;99.90;;;;;;5129803;27;20557;-61
2023/12/13 11:35:40;;;;;;;58.97;35.33;;;6.50;99.90;;;;;;5129735;27;20203;-65
2023/12/13 11:38:09;;;;;;;70.67;42.20;;;6.40;99.90;;;;;;5129841;27;20194;-65
2023/12/13 11:40:40;;;;;;;80.70;47.27;;;6.50;99.90;;;;;;5129566;27;20254;-63
2023/12/13 11:43:09;;;;;;;75.10;45.90;;;6.50;99.90;;;;;;5129707;27;20302;-60
2023/12/13 11:45:49;;;;;;;92.23;53.43;;;6.60;99.90;;;;;;5129516;27;20203;-64
2023/12/13 11:48:18;;;;;;;99.57;60.20;;;6.70;99.90;;;;;;5129788;27;20202;-63
2023/12/13 11:50:47;;;;;;;87.57;52.83;;;6.70;99.90;;;;;;5129670;27;20195;-66
2023/12/13 11:53:15;;;;;;;88.00;53.60;;;6.80;99.90;;;;;;5129502;27;20195;-63
2023/12/13 11:55:44;;;;;;;63.27;40.97;;;6.80;99.90;;;;;;5129481;28;20200;-64
2023/12/13 11:58:14;;;;;;;53.73;35.90;;;6.80;99.90;;;;;;5129271;27;20202;-63
2023/12/13 12:00:43;;;;;;;48.03;33.60;;;6.70;99.90;;;;;;5129783;27;20297;-65
2023/12/13 12:03:12;;;;;;;51.67;32.53;;;6.60;99.90;;;;;;5129408;27;20227;-60
2023/12/13 12:05:43;;;;;;;50.60;33.97;;;6.60;99.90;;;;;;5129404;28;20187;-63
2023/12/13 12:08:12;;;;;;;66.53;38.90;;;6.60;99.90;;;;;;5129564;28;20209;-64
2023/12/13 12:10:43;;;;;;;69.40;42.07;;;6.60;99.90;;;;;;5129141;27;20206;-63
2023/12/13 12:13:11;;;;;;;80.43;47.10;;;6.50;99.90;;;;;;5129555;27;20200;-62
2023/12/13 12:15:43;;;;;;;81.53;49.83;;;6.40;99.90;;;;;;5132545;27;20224;-65
2023/12/13 12:18:12;;;;;;;91.27;56.93;;;6.40;99.90;;;;;;5133659;27;20199;-61
2023/12/13 12:20:41;;;;;;;97.87;61.43;;;6.40;99.90;;;;;;5133483;27;20203;-61
2023/12/13 12:23:11;;;;;;;92.57;54.53;;;6.50;99.90;;;;;;5133331;27;20309;-64
2023/12/13 12:25:42;;;;;;;60.17;38.87;;;6.50;99.90;;;;;;5133325;27;20215;-64
2023/12/13 12:28:11;;;;;;;68.20;42.33;;;6.60;99.90;;;;;;5133318;27;20741;-65
2023/12/13 12:30:40;;;;;;;92.13;47.27;;;6.50;99.90;;;;;;5133037;27;20233;-61
2023/12/13 12:33:09;;;;;;;86.03;48.57;;;6.30;99.90;;;;;;5133319;27;20265;-63
2023/12/13 12:35:38;;;;;;;88.07;51.93;;;6.20;99.90;;;;;;5133193;27;20190;-66
2023/12/13 12:38:08;;;;;;;89.07;51.63;;;6.30;99.90;;;;;;5132984;27;20190;-60
2023/12/13 12:40:38;;;;;;;91.93;53.37;;;6.30;99.90;;;;;;5132916;27;20223;-65
2023/12/13 12:43:06;;;;;;;92.63;52.73;;;6.30;99.90;;;;;;5132993;27;20214;-63